sensor_id;sensor_type;location;lat;lon;timestamp;P1;durP1;ratioP1;P2;durP2;ratioP2
69207;SDS011;56321;47.662;8.878;2023-04-01T00:00:29;3.37;;;0.20;;
69207;SDS011;56321;47.662;8.878;2023-04-01T00:02:55;2.80;;;0.10;;
69207;SDS011;56321;47.662;8.878;2023-04-01T00:05:21;5.60;;;0.23;;
69207;SDS011;56321;47.662;8.878;2023-04-01T00:07:46;2.17;;;0.10;;
69207;SDS011;56321;47.662;8.878;2023-04-01T00:10:12;3.58;;;0.10;;
69207;SDS011;56321;47.662;8.878;2023-04-01T00:12:40;2.88;;;0.30;;
69207;SDS011;56321;47.662;8.878;2023-04-01T00:15:06;2.00;;;0.17;;
69207;SDS011;56321;47.662;8.878;2023-04-01T00:17:34;4.68;;;0.20;;
69207;SDS011;56321;47.662;8.878;2023-04-01T00:20:00;2.58;;;0.10;;
69207;SDS011;56321;47.662;8.878;2023-04-01T00:22:25;2.90;;;0.17;;
69207;SDS011;56321;47.662;8.878;2023-04-01T00:24:52;3.65;;;0.20;;
69207;SDS011;56321;47.662;8.878;2023-04-01T00:27:18;2.22;;;0.15;;
69207;SDS011;56321;47.662;8.878;2023-04-01T00:29:44;3.17;;;0.30;;
69207;SDS011;56321;47.662;8.878;2023-04-01T00:32:10;2.72;;;0.13;;
69207;SDS011;56321;47.662;8.878;2023-04-01T00:34:35;1.27;;;0.10;;
69207;SDS011;56321;47.662;8.878;2023-04-01T00:37:01;1.05;;;0.10;;
69207;SDS011;56321;47.662;8.878;2023-04-01T00:39:30;0.87;;;0.10;;
69207;SDS011;56321;47.662;8.878;2023-04-01T00:41:56;1.70;;;0.10;;
69207;SDS011;56321;47.662;8.878;2023-04-01T00:44:23;2.05;;;0.10;;
69207;SDS011;56321;47.662;8.878;2023-04-01T00:46:50;2.70;;;0.20;;
69207;SDS011;56321;47.662;8.878;2023-04-01T00:49:17;2.00;;;0.10;;
69207;SDS011;56321;47.662;8.878;2023-04-01T00:51:45;1.38;;;0.10;;
69207;SDS011;56321;47.662;8.878;2023-04-01T00:54:13;1.42;;;0.08;;
69207;SDS011;56321;47.662;8.878;2023-04-01T00:56:51;2.20;;;0.10;;
69207;SDS011;56321;47.662;8.878;2023-04-01T00:59:25;1.77;;;0.03;;
69207;SDS011;56321;47.662;8.878;2023-04-01T01:01:54;0.17;;;0.00;;
69207;SDS011;56321;47.662;8.878;2023-04-01T01:04:26;2.42;;;0.10;;
69207;SDS011;56321;47.662;8.878;2023-04-01T01:06:58;1.77;;;0.00;;
69207;SDS011;56321;47.662;8.878;2023-04-01T01:12:35;0.70;;;0.00;;
69207;SDS011;56321;47.662;8.878;2023-04-01T01:15:21;0.95;;;0.00;;
69207;SDS011;56321;47.662;8.878;2023-04-01T01:18:05;1.33;;;0.08;;
69207;SDS011;56321;47.662;8.878;2023-04-01T01:20:49;1.33;;;0.10;;
69207;SDS011;56321;47.662;8.878;2023-04-01T01:32:10;2.45;;;0.10;;
69207;SDS011;56321;47.662;8.878;2023-04-01T01:35:16;2.17;;;0.10;;
69207;SDS011;56321;47.662;8.878;2023-04-01T01:38:04;2.00;;;0.10;;
69207;SDS011;56321;47.662;8.878;2023-04-01T01:40:32;3.03;;;0.20;;
69207;SDS011;56321;47.662;8.878;2023-04-01T01:43:00;3.17;;;0.15;;
69207;SDS011;56321;47.662;8.878;2023-04-01T01:45:30;1.90;;;0.10;;
69207;SDS011;56321;47.662;8.878;2023-04-01T01:47:58;3.90;;;0.10;;
69207;SDS011;56321;47.662;8.878;2023-04-01T01:50:25;2.83;;;0.20;;
69207;SDS011;56321;47.662;8.878;2023-04-01T01:53:00;3.22;;;0.10;;
69207;SDS011;56321;47.662;8.878;2023-04-01T01:55:33;2.72;;;0.10;;
69207;SDS011;56321;47.662;8.878;2023-04-01T01:58:46;3.55;;;0.20;;
69207;SDS011;56321;47.662;8.878;2023-04-01T02:00:55;2.20;;;0.10;;
69207;SDS011;56321;47.662;8.878;2023-04-01T02:03:24;3.33;;;0.20;;
69207;SDS011;56321;47.662;8.878;2023-04-01T02:05:52;1.45;;;0.00;;
69207;SDS011;56321;47.662;8.878;2023-04-01T02:08:21;1.95;;;0.20;;
69207;SDS011;56321;47.662;8.878;2023-04-01T02:10:55;3.13;;;0.10;;
69207;SDS011;56321;47.662;8.878;2023-04-01T02:16:28;2.78;;;0.10;;
69207;SDS011;56321;47.662;8.878;2023-04-01T02:18:58;2.63;;;0.10;;
69207;SDS011;56321;47.662;8.878;2023-04-01T02:21:26;3.65;;;0.20;;
69207;SDS011;56321;47.662;8.878;2023-04-01T02:23:54;3.17;;;0.20;;
69207;SDS011;56321;47.662;8.878;2023-04-01T02:26:21;3.33;;;0.20;;
69207;SDS011;56321;47.662;8.878;2023-04-01T02:28:50;3.08;;;0.10;;
69207;SDS011;56321;47.662;8.878;2023-04-01T02:31:16;4.32;;;0.30;;
69207;SDS011;56321;47.662;8.878;2023-04-01T02:33:42;2.47;;;0.20;;
69207;SDS011;56321;47.662;8.878;2023-04-01T02:36:10;4.43;;;0.20;;
69207;SDS011;56321;47.662;8.878;2023-04-01T02:38:38;3.80;;;0.20;;
69207;SDS011;56321;47.662;8.878;2023-04-01T02:41:04;3.67;;;0.20;;
69207;SDS011;56321;47.662;8.878;2023-04-01T02:43:31;3.10;;;0.10;;
69207;SDS011;56321;47.662;8.878;2023-04-01T02:45:56;3.65;;;0.10;;
69207;SDS011;56321;47.662;8.878;2023-04-01T02:48:22;4.57;;;0.37;;
69207;SDS011;56321;47.662;8.878;2023-04-01T02:50:47;4.23;;;0.13;;
69207;SDS011;56321;47.662;8.878;2023-04-01T02:53:12;2.73;;;0.20;;
69207;SDS011;56321;47.662;8.878;2023-04-01T02:55:38;3.50;;;0.13;;
69207;SDS011;56321;47.662;8.878;2023-04-01T02:58:03;3.93;;;0.20;;
69207;SDS011;56321;47.662;8.878;2023-04-01T03:00:29;2.72;;;0.25;;
69207;SDS011;56321;47.662;8.878;2023-04-01T03:02:55;4.35;;;0.20;;
69207;SDS011;56321;47.662;8.878;2023-04-01T03:05:21;3.30;;;0.20;;
69207;SDS011;56321;47.662;8.878;2023-04-01T03:07:47;3.40;;;0.32;;
69207;SDS011;56321;47.662;8.878;2023-04-01T03:10:12;5.00;;;0.20;;
69207;SDS011;56321;47.662;8.878;2023-04-01T03:12:38;4.22;;;0.20;;
69207;SDS011;56321;47.662;8.878;2023-04-01T03:15:03;2.30;;;0.10;;
69207;SDS011;56321;47.662;8.878;2023-04-01T03:17:29;4.43;;;0.30;;
69207;SDS011;56321;47.662;8.878;2023-04-01T03:19:55;2.77;;;0.20;;
69207;SDS011;56321;47.662;8.878;2023-04-01T03:22:20;3.00;;;0.10;;
69207;SDS011;56321;47.662;8.878;2023-04-01T03:24:46;2.20;;;0.20;;
69207;SDS011;56321;47.662;8.878;2023-04-01T03:27:12;2.03;;;0.10;;
69207;SDS011;56321;47.662;8.878;2023-04-01T03:29:37;2.97;;;0.20;;
69207;SDS011;56321;47.662;8.878;2023-04-01T03:32:03;4.40;;;0.20;;
69207;SDS011;56321;47.662;8.878;2023-04-01T03:34:29;4.40;;;0.37;;
69207;SDS011;56321;47.662;8.878;2023-04-01T03:36:54;2.83;;;0.20;;
69207;SDS011;56321;47.662;8.878;2023-04-01T03:39:19;5.23;;;0.20;;
69207;SDS011;56321;47.662;8.878;2023-04-01T03:41:45;3.80;;;0.40;;
69207;SDS011;56321;47.662;8.878;2023-04-01T03:44:11;3.35;;;0.50;;
69207;SDS011;56321;47.662;8.878;2023-04-01T03:46:36;3.95;;;0.30;;
69207;SDS011;56321;47.662;8.878;2023-04-01T03:49:02;3.37;;;0.20;;
69207;SDS011;56321;47.662;8.878;2023-04-01T03:51:27;3.73;;;0.20;;
69207;SDS011;56321;47.662;8.878;2023-04-01T03:53:53;3.87;;;0.20;;
69207;SDS011;56321;47.662;8.878;2023-04-01T03:56:18;3.13;;;0.20;;
69207;SDS011;56321;47.662;8.878;2023-04-01T03:58:43;5.50;;;0.40;;
69207;SDS011;56321;47.662;8.878;2023-04-01T04:01:19;5.80;;;0.30;;
69207;SDS011;56321;47.662;8.878;2023-04-01T04:03:45;5.38;;;0.32;;
69207;SDS011;56321;47.662;8.878;2023-04-01T04:06:12;4.03;;;0.20;;
69207;SDS011;56321;47.662;8.878;2023-04-01T04:08:38;3.70;;;0.20;;
69207;SDS011;56321;47.662;8.878;2023-04-01T04:11:04;4.50;;;0.20;;
69207;SDS011;56321;47.662;8.878;2023-04-01T04:13:29;5.97;;;0.20;;
69207;SDS011;56321;47.662;8.878;2023-04-01T04:15:54;3.47;;;0.20;;
69207;SDS011;56321;47.662;8.878;2023-04-01T04:18:20;3.40;;;0.30;;
69207;SDS011;56321;47.662;8.878;2023-04-01T04:20:45;4.00;;;0.20;;
69207;SDS011;56321;47.662;8.878;2023-04-01T04:23:16;3.58;;;0.20;;
69207;SDS011;56321;47.662;8.878;2023-04-01T04:25:58;3.13;;;0.17;;
69207;SDS011;56321;47.662;8.878;2023-04-01T04:28:28;3.40;;;0.20;;
69207;SDS011;56321;47.662;8.878;2023-04-01T04:30:54;2.93;;;0.27;;
69207;SDS011;56321;47.662;8.878;2023-04-01T04:33:20;3.27;;;0.30;;
69207;SDS011;56321;47.662;8.878;2023-04-01T04:35:46;2.42;;;0.20;;
69207;SDS011;56321;47.662;8.878;2023-04-01T04:38:11;3.90;;;0.37;;
69207;SDS011;56321;47.662;8.878;2023-04-01T04:40:37;3.33;;;0.20;;
69207;SDS011;56321;47.662;8.878;2023-04-01T04:43:03;4.00;;;0.13;;
69207;SDS011;56321;47.662;8.878;2023-04-01T04:45:29;4.22;;;0.20;;
69207;SDS011;56321;47.662;8.878;2023-04-01T04:47:55;4.47;;;0.30;;
69207;SDS011;56321;47.662;8.878;2023-04-01T04:50:21;2.57;;;0.10;;
69207;SDS011;56321;47.662;8.878;2023-04-01T04:52:46;3.63;;;0.40;;
69207;SDS011;56321;47.662;8.878;2023-04-01T04:55:11;3.60;;;0.30;;
69207;SDS011;56321;47.662;8.878;2023-04-01T04:57:37;4.65;;;0.20;;
69207;SDS011;56321;47.662;8.878;2023-04-01T05:00:02;4.33;;;0.23;;
69207;SDS011;56321;47.662;8.878;2023-04-01T05:02:28;4.85;;;0.35;;
69207;SDS011;56321;47.662;8.878;2023-04-01T05:04:53;4.10;;;0.20;;
69207;SDS011;56321;47.662;8.878;2023-04-01T05:07:19;3.43;;;0.30;;
69207;SDS011;56321;47.662;8.878;2023-04-01T05:09:44;4.15;;;0.40;;
69207;SDS011;56321;47.662;8.878;2023-04-01T05:12:10;3.40;;;0.20;;
69207;SDS011;56321;47.662;8.878;2023-04-01T05:14:37;5.13;;;0.40;;
69207;SDS011;56321;47.662;8.878;2023-04-01T05:17:03;2.93;;;0.20;;
69207;SDS011;56321;47.662;8.878;2023-04-01T05:19:28;3.17;;;0.10;;
69207;SDS011;56321;47.662;8.878;2023-04-01T05:21:54;4.43;;;0.20;;
69207;SDS011;56321;47.662;8.878;2023-04-01T05:24:19;2.40;;;0.20;;
69207;SDS011;56321;47.662;8.878;2023-04-01T05:26:45;3.07;;;0.10;;
69207;SDS011;56321;47.662;8.878;2023-04-01T05:29:10;2.30;;;0.13;;
69207;SDS011;56321;47.662;8.878;2023-04-01T05:31:35;2.80;;;0.23;;
69207;SDS011;56321;47.662;8.878;2023-04-01T05:34:00;1.87;;;0.10;;
69207;SDS011;56321;47.662;8.878;2023-04-01T05:36:26;3.78;;;0.20;;
69207;SDS011;56321;47.662;8.878;2023-04-01T05:38:54;2.93;;;0.10;;
69207;SDS011;56321;47.662;8.878;2023-04-01T05:41:20;3.05;;;0.20;;
69207;SDS011;56321;47.662;8.878;2023-04-01T05:43:45;3.03;;;0.10;;
69207;SDS011;56321;47.662;8.878;2023-04-01T05:46:11;2.57;;;0.10;;
69207;SDS011;56321;47.662;8.878;2023-04-01T05:48:36;1.97;;;0.10;;
69207;SDS011;56321;47.662;8.878;2023-04-01T05:51:02;2.37;;;0.10;;
69207;SDS011;56321;47.662;8.878;2023-04-01T05:53:27;1.42;;;0.10;;
69207;SDS011;56321;47.662;8.878;2023-04-01T05:55:53;2.70;;;0.23;;
69207;SDS011;56321;47.662;8.878;2023-04-01T05:58:18;1.33;;;0.10;;
69207;SDS011;56321;47.662;8.878;2023-04-01T06:00:43;2.20;;;0.10;;
69207;SDS011;56321;47.662;8.878;2023-04-01T06:03:09;3.17;;;0.30;;
69207;SDS011;56321;47.662;8.878;2023-04-01T06:05:38;2.33;;;0.10;;
69207;SDS011;56321;47.662;8.878;2023-04-01T06:08:15;1.65;;;0.10;;
69207;SDS011;56321;47.662;8.878;2023-04-01T06:10:54;2.25;;;0.20;;
69207;SDS011;56321;47.662;8.878;2023-04-01T06:27:39;2.00;;;0.10;;
69207;SDS011;56321;47.662;8.878;2023-04-01T06:30:33;1.13;;;0.10;;
69207;SDS011;56321;47.662;8.878;2023-04-01T06:38:57;2.78;;;0.10;;
69207;SDS011;56321;47.662;8.878;2023-04-01T06:44:28;3.70;;;0.10;;
69207;SDS011;56321;47.662;8.878;2023-04-01T06:50:16;3.28;;;0.20;;
69207;SDS011;56321;47.662;8.878;2023-04-01T06:53:10;2.70;;;0.10;;
69207;SDS011;56321;47.662;8.878;2023-04-01T06:55:43;2.63;;;0.10;;
69207;SDS011;56321;47.662;8.878;2023-04-01T06:58:19;1.27;;;0.10;;
69207;SDS011;56321;47.662;8.878;2023-04-01T07:00:48;1.25;;;0.00;;
69207;SDS011;56321;47.662;8.878;2023-04-01T07:03:19;2.00;;;0.10;;
69207;SDS011;56321;47.662;8.878;2023-04-01T07:05:56;1.35;;;0.10;;
69207;SDS011;56321;47.662;8.878;2023-04-01T07:08:26;1.30;;;0.10;;
69207;SDS011;56321;47.662;8.878;2023-04-01T07:10:55;1.90;;;0.20;;
69207;SDS011;56321;47.662;8.878;2023-04-01T07:18:56;2.83;;;0.10;;
69207;SDS011;56321;47.662;8.878;2023-04-01T07:21:28;1.77;;;0.10;;
69207;SDS011;56321;47.662;8.878;2023-04-01T07:24:01;1.83;;;0.30;;
69207;SDS011;56321;47.662;8.878;2023-04-01T07:26:31;0.80;;;0.10;;
69207;SDS011;56321;47.662;8.878;2023-04-01T07:28:56;1.20;;;0.10;;
69207;SDS011;56321;47.662;8.878;2023-04-01T07:31:29;2.13;;;0.10;;
69207;SDS011;56321;47.662;8.878;2023-04-01T07:34:31;2.22;;;0.10;;
69207;SDS011;56321;47.662;8.878;2023-04-01T07:37:10;1.27;;;0.10;;
69207;SDS011;56321;47.662;8.878;2023-04-01T07:42:27;1.50;;;0.10;;
69207;SDS011;56321;47.662;8.878;2023-04-01T07:48:08;2.05;;;0.20;;
69207;SDS011;56321;47.662;8.878;2023-04-01T07:56:29;0.70;;;0.00;;
69207;SDS011;56321;47.662;8.878;2023-04-01T08:07:15;1.08;;;0.00;;
69207;SDS011;56321;47.662;8.878;2023-04-01T08:09:56;1.77;;;0.03;;
69207;SDS011;56321;47.662;8.878;2023-04-01T08:15:46;2.17;;;0.22;;
69207;SDS011;56321;47.662;8.878;2023-04-01T08:20:59;0.98;;;0.00;;
69207;SDS011;56321;47.662;8.878;2023-04-01T08:23:31;0.60;;;0.00;;
69207;SDS011;56321;47.662;8.878;2023-04-01T08:28:37;1.30;;;0.13;;
69207;SDS011;56321;47.662;8.878;2023-04-01T08:31:10;1.05;;;0.10;;
69207;SDS011;56321;47.662;8.878;2023-04-01T08:33:57;0.73;;;0.13;;
69207;SDS011;56321;47.662;8.878;2023-04-01T08:36:31;2.40;;;0.20;;
69207;SDS011;56321;47.662;8.878;2023-04-01T08:39:05;2.30;;;0.20;;
69207;SDS011;56321;47.662;8.878;2023-04-01T08:58:14;0.85;;;0.08;;
69207;SDS011;56321;47.662;8.878;2023-04-01T09:03:45;1.23;;;0.10;;
69207;SDS011;56321;47.662;8.878;2023-04-01T09:06:30;1.17;;;0.10;;
69207;SDS011;56321;47.662;8.878;2023-04-01T09:20:20;1.67;;;0.10;;
69207;SDS011;56321;47.662;8.878;2023-04-01T09:40:18;0.70;;;0.10;;
69207;SDS011;56321;47.662;8.878;2023-04-01T09:45:44;0.63;;;0.00;;
69207;SDS011;56321;47.662;8.878;2023-04-01T09:48:15;1.27;;;0.10;;
69207;SDS011;56321;47.662;8.878;2023-04-01T09:51:00;0.68;;;0.10;;
69207;SDS011;56321;47.662;8.878;2023-04-01T10:01:55;0.73;;;0.08;;
69207;SDS011;56321;47.662;8.878;2023-04-01T10:22:05;1.75;;;0.15;;
69207;SDS011;56321;47.662;8.878;2023-04-01T10:30:05;0.65;;;0.10;;
69207;SDS011;56321;47.662;8.878;2023-04-01T10:36:14;0.82;;;0.00;;
69207;SDS011;56321;47.662;8.878;2023-04-01T10:42:03;1.25;;;0.10;;
69207;SDS011;56321;47.662;8.878;2023-04-01T10:50:43;1.23;;;0.17;;
69207;SDS011;56321;47.662;8.878;2023-04-01T10:56:34;1.38;;;0.10;;
69207;SDS011;56321;47.662;8.878;2023-04-01T11:10:17;0.60;;;0.10;;
69207;SDS011;56321;47.662;8.878;2023-04-01T11:29:26;1.47;;;0.10;;
69207;SDS011;56321;47.662;8.878;2023-04-01T11:32:11;1.38;;;0.08;;
69207;SDS011;56321;47.662;8.878;2023-04-01T11:35:06;1.02;;;0.10;;
69207;SDS011;56321;47.662;8.878;2023-04-01T11:40:35;0.90;;;0.10;;
69207;SDS011;56321;47.662;8.878;2023-04-01T11:43:16;0.63;;;0.10;;
69207;SDS011;56321;47.662;8.878;2023-04-01T11:48:40;2.83;;;0.20;;
69207;SDS011;56321;47.662;8.878;2023-04-01T11:54:20;1.38;;;0.10;;
69207;SDS011;56321;47.662;8.878;2023-04-01T11:57:17;0.90;;;0.10;;
69207;SDS011;56321;47.662;8.878;2023-04-01T12:05:54;0.55;;;0.10;;
69207;SDS011;56321;47.662;8.878;2023-04-01T12:14:17;1.80;;;0.15;;
69207;SDS011;56321;47.662;8.878;2023-04-01T12:16:54;1.00;;;0.10;;
69207;SDS011;56321;47.662;8.878;2023-04-01T12:19:32;1.38;;;0.10;;
69207;SDS011;56321;47.662;8.878;2023-04-01T12:25:53;1.17;;;0.20;;
69207;SDS011;56321;47.662;8.878;2023-04-01T12:28:39;1.23;;;0.10;;
69207;SDS011;56321;47.662;8.878;2023-04-01T12:31:14;1.20;;;0.10;;
69207;SDS011;56321;47.662;8.878;2023-04-01T12:40:06;0.73;;;0.00;;
69207;SDS011;56321;47.662;8.878;2023-04-01T12:56:09;1.40;;;0.10;;
69207;SDS011;56321;47.662;8.878;2023-04-01T12:58:51;1.80;;;0.10;;
69207;SDS011;56321;47.662;8.878;2023-04-01T13:10:13;1.70;;;0.10;;
69207;SDS011;56321;47.662;8.878;2023-04-01T13:15:41;0.50;;;0.10;;
69207;SDS011;56321;47.662;8.878;2023-04-01T13:21:05;1.13;;;0.10;;
69207;SDS011;56321;47.662;8.878;2023-04-01T13:23:55;4.53;;;0.75;;
69207;SDS011;56321;47.662;8.878;2023-04-01T13:29:32;1.67;;;0.10;;
69207;SDS011;56321;47.662;8.878;2023-04-01T13:35:18;0.65;;;0.10;;
69207;SDS011;56321;47.662;8.878;2023-04-01T13:38:03;1.05;;;0.10;;
69207;SDS011;56321;47.662;8.878;2023-04-01T13:43:47;1.83;;;0.10;;
69207;SDS011;56321;47.662;8.878;2023-04-01T13:51:52;1.80;;;0.10;;
69207;SDS011;56321;47.662;8.878;2023-04-01T14:10:41;2.03;;;0.20;;
69207;SDS011;56321;47.662;8.878;2023-04-01T14:40:44;1.17;;;0.10;;
69207;SDS011;56321;47.662;8.878;2023-04-01T14:47:11;1.40;;;0.20;;
69207;SDS011;56321;47.662;8.878;2023-04-01T14:49:49;2.05;;;0.10;;
69207;SDS011;56321;47.662;8.878;2023-04-01T14:54:46;1.60;;;0.10;;
69207;SDS011;56321;47.662;8.878;2023-04-01T14:57:14;1.30;;;0.10;;
69207;SDS011;56321;47.662;8.878;2023-04-01T14:59:51;0.53;;;0.00;;
69207;SDS011;56321;47.662;8.878;2023-04-01T15:10:24;1.50;;;0.10;;
69207;SDS011;56321;47.662;8.878;2023-04-01T15:18:17;1.38;;;0.10;;
69207;SDS011;56321;47.662;8.878;2023-04-01T15:24:17;0.45;;;0.03;;
69207;SDS011;56321;47.662;8.878;2023-04-01T15:27:07;0.43;;;0.00;;
69207;SDS011;56321;47.662;8.878;2023-04-01T15:29:44;0.55;;;0.00;;
69207;SDS011;56321;47.662;8.878;2023-04-01T15:40:32;1.83;;;0.03;;
69207;SDS011;56321;47.662;8.878;2023-04-01T15:54:24;0.60;;;0.10;;
69207;SDS011;56321;47.662;8.878;2023-04-01T15:57:08;1.00;;;0.10;;
69207;SDS011;56321;47.662;8.878;2023-04-01T16:11:21;1.98;;;0.13;;
69207;SDS011;56321;47.662;8.878;2023-04-01T16:14:06;1.10;;;0.10;;
69207;SDS011;56321;47.662;8.878;2023-04-01T16:27:09;2.87;;;0.20;;
69207;SDS011;56321;47.662;8.878;2023-04-01T16:30:00;1.58;;;0.20;;
69207;SDS011;56321;47.662;8.878;2023-04-01T16:32:51;1.00;;;0.10;;
69207;SDS011;56321;47.662;8.878;2023-04-01T16:35:37;1.75;;;0.20;;
69207;SDS011;56321;47.662;8.878;2023-04-01T16:38:11;1.13;;;0.10;;
69207;SDS011;56321;47.662;8.878;2023-04-01T16:51:46;3.22;;;0.20;;
69207;SDS011;56321;47.662;8.878;2023-04-01T16:54:28;1.77;;;0.20;;
69207;SDS011;56321;47.662;8.878;2023-04-01T16:59:38;2.33;;;0.13;;
69207;SDS011;56321;47.662;8.878;2023-04-01T17:02:37;1.63;;;0.10;;
69207;SDS011;56321;47.662;8.878;2023-04-01T17:05:08;0.65;;;0.10;;
69207;SDS011;56321;47.662;8.878;2023-04-01T17:21:21;1.92;;;0.10;;
69207;SDS011;56321;47.662;8.878;2023-04-01T17:24:14;1.13;;;0.10;;
69207;SDS011;56321;47.662;8.878;2023-04-01T17:37:42;1.45;;;0.20;;
69207;SDS011;56321;47.662;8.878;2023-04-01T17:40:29;2.27;;;0.20;;
69207;SDS011;56321;47.662;8.878;2023-04-01T17:45:57;1.40;;;0.20;;
69207;SDS011;56321;47.662;8.878;2023-04-01T17:56:18;2.22;;;0.20;;
69207;SDS011;56321;47.662;8.878;2023-04-01T17:59:16;1.38;;;0.10;;
69207;SDS011;56321;47.662;8.878;2023-04-01T18:02:02;2.25;;;0.20;;
69207;SDS011;56321;47.662;8.878;2023-04-01T18:10:21;2.35;;;0.22;;
69207;SDS011;56321;47.662;8.878;2023-04-01T18:13:15;1.92;;;0.20;;
69207;SDS011;56321;47.662;8.878;2023-04-01T18:18:48;3.60;;;0.30;;
69207;SDS011;56321;47.662;8.878;2023-04-01T18:24:16;6.68;;;1.98;;
69207;SDS011;56321;47.662;8.878;2023-04-01T18:26:49;8.52;;;3.60;;
69207;SDS011;56321;47.662;8.878;2023-04-01T18:29:32;3.33;;;0.50;;
69207;SDS011;56321;47.662;8.878;2023-04-01T18:32:22;3.03;;;0.40;;
69207;SDS011;56321;47.662;8.878;2023-04-01T18:37:44;4.15;;;1.10;;
69207;SDS011;56321;47.662;8.878;2023-04-01T18:40:28;3.03;;;0.50;;
69207;SDS011;56321;47.662;8.878;2023-04-01T18:43:08;2.67;;;0.38;;
69207;SDS011;56321;47.662;8.878;2023-04-01T18:45:43;3.97;;;0.90;;
69207;SDS011;56321;47.662;8.878;2023-04-01T18:48:43;2.77;;;0.40;;
69207;SDS011;56321;47.662;8.878;2023-04-01T18:51:18;2.20;;;0.30;;
69207;SDS011;56321;47.662;8.878;2023-04-01T18:53:58;3.75;;;0.73;;
69207;SDS011;56321;47.662;8.878;2023-04-01T18:56:31;2.70;;;0.40;;
69207;SDS011;56321;47.662;8.878;2023-04-01T18:59:20;2.28;;;0.30;;
69207;SDS011;56321;47.662;8.878;2023-04-01T19:02:13;3.17;;;0.60;;
69207;SDS011;56321;47.662;8.878;2023-04-01T19:04:43;2.92;;;0.50;;
69207;SDS011;56321;47.662;8.878;2023-04-01T19:07:30;3.67;;;0.50;;
69207;SDS011;56321;47.662;8.878;2023-04-01T19:21:10;3.25;;;0.20;;
69207;SDS011;56321;47.662;8.878;2023-04-01T19:23:50;2.80;;;0.40;;
69207;SDS011;56321;47.662;8.878;2023-04-01T19:26:34;2.28;;;0.30;;
69207;SDS011;56321;47.662;8.878;2023-04-01T19:37:08;2.75;;;0.30;;
69207;SDS011;56321;47.662;8.878;2023-04-01T19:42:23;3.60;;;0.77;;
69207;SDS011;56321;47.662;8.878;2023-04-01T19:50:56;3.97;;;0.63;;
69207;SDS011;56321;47.662;8.878;2023-04-01T19:53:32;15.43;;;4.93;;
69207;SDS011;56321;47.662;8.878;2023-04-01T19:56:23;9.50;;;2.70;;
69207;SDS011;56321;47.662;8.878;2023-04-01T19:59:04;5.87;;;0.70;;
69207;SDS011;56321;47.662;8.878;2023-04-01T20:01:43;1.58;;;0.20;;
69207;SDS011;56321;47.662;8.878;2023-04-01T20:04:22;2.17;;;0.20;;
69207;SDS011;56321;47.662;8.878;2023-04-01T20:07:05;2.13;;;0.20;;
69207;SDS011;56321;47.662;8.878;2023-04-01T20:09:58;3.38;;;0.30;;
69207;SDS011;56321;47.662;8.878;2023-04-01T20:15:32;3.17;;;0.30;;
69207;SDS011;56321;47.662;8.878;2023-04-01T20:18:44;2.03;;;0.28;;
69207;SDS011;56321;47.662;8.878;2023-04-01T20:20:57;4.80;;;0.68;;
69207;SDS011;56321;47.662;8.878;2023-04-01T20:23:33;6.60;;;1.55;;
69207;SDS011;56321;47.662;8.878;2023-04-01T20:26:06;5.83;;;1.40;;
69207;SDS011;56321;47.662;8.878;2023-04-01T20:31:23;4.40;;;0.50;;
69207;SDS011;56321;47.662;8.878;2023-04-01T20:42:31;3.17;;;0.40;;
69207;SDS011;56321;47.662;8.878;2023-04-01T20:51:43;3.22;;;0.40;;
69207;SDS011;56321;47.662;8.878;2023-04-01T21:07:54;3.00;;;0.30;;
69207;SDS011;56321;47.662;8.878;2023-04-01T21:38:18;2.17;;;0.20;;
69207;SDS011;56321;47.662;8.878;2023-04-01T21:46:32;2.40;;;0.20;;
69207;SDS011;56321;47.662;8.878;2023-04-01T21:49:40;2.58;;;0.20;;
69207;SDS011;56321;47.662;8.878;2023-04-01T21:55:43;1.53;;;0.20;;
69207;SDS011;56321;47.662;8.878;2023-04-01T22:04:37;2.60;;;0.20;;
69207;SDS011;56321;47.662;8.878;2023-04-01T22:07:19;2.55;;;0.20;;
69207;SDS011;56321;47.662;8.878;2023-04-01T22:12:40;2.72;;;0.20;;
69207;SDS011;56321;47.662;8.878;2023-04-01T22:21:09;2.75;;;0.30;;
69207;SDS011;56321;47.662;8.878;2023-04-01T22:32:16;2.22;;;0.30;;
69207;SDS011;56321;47.662;8.878;2023-04-01T22:53:22;1.95;;;0.20;;
69207;SDS011;56321;47.662;8.878;2023-04-01T22:55:50;3.03;;;0.20;;
69207;SDS011;56321;47.662;8.878;2023-04-01T22:58:34;2.78;;;0.30;;
69207;SDS011;56321;47.662;8.878;2023-04-01T23:01:05;3.17;;;0.20;;
69207;SDS011;56321;47.662;8.878;2023-04-01T23:03:36;1.37;;;0.10;;
69207;SDS011;56321;47.662;8.878;2023-04-01T23:06:05;1.80;;;0.20;;
69207;SDS011;56321;47.662;8.878;2023-04-01T23:11:06;2.72;;;0.20;;
69207;SDS011;56321;47.662;8.878;2023-04-01T23:13:35;2.60;;;0.20;;
69207;SDS011;56321;47.662;8.878;2023-04-01T23:16:03;2.73;;;0.20;;
69207;SDS011;56321;47.662;8.878;2023-04-01T23:18:35;1.85;;;0.20;;
69207;SDS011;56321;47.662;8.878;2023-04-01T23:21:26;2.28;;;0.20;;
69207;SDS011;56321;47.662;8.878;2023-04-01T23:24:24;2.50;;;0.30;;
69207;SDS011;56321;47.662;8.878;2023-04-01T23:30:02;2.03;;;0.20;;
69207;SDS011;56321;47.662;8.878;2023-04-01T23:32:28;1.63;;;0.20;;
69207;SDS011;56321;47.662;8.878;2023-04-01T23:34:55;2.75;;;0.30;;
69207;SDS011;56321;47.662;8.878;2023-04-01T23:37:24;2.13;;;0.20;;
69207;SDS011;56321;47.662;8.878;2023-04-01T23:39:53;1.60;;;0.20;;
69207;SDS011;56321;47.662;8.878;2023-04-01T23:42:21;1.70;;;0.30;;
69207;SDS011;56321;47.662;8.878;2023-04-01T23:44:55;2.33;;;0.20;;
69207;SDS011;56321;47.662;8.878;2023-04-01T23:47:33;1.35;;;0.10;;
69207;SDS011;56321;47.662;8.878;2023-04-01T23:50:04;1.63;;;0.10;;
69207;SDS011;56321;47.662;8.878;2023-04-01T23:52:40;1.00;;;0.10;;
69207;SDS011;56321;47.662;8.878;2023-04-01T23:58:07;1.02;;;0.10;;
